Time;durP1;ratioP1;P1;durP2;ratioP2;P2;SDS_P1;SDS_P2;PMS_P1;PMS_P2;Temp;Humidity;BMP_temperature;BMP_pressure;BME280_temperature;BME280_humidity;BME280_pressure;Samples;Min_cycle;Max_cycle;Signal;HPM_P1;HPM_P2
2022/03/19 00:01:57;;;;;;;71.47;41.45;;;;;;;6.72;86.73;100284.06;4175636;28;20255;-83
2022/03/19 00:04:01;;;;;;;66.88;43.03;;;;;;;6.71;86.84;100295.34;4177324;28;20647;-83
2022/03/19 00:06:04;;;;;;;70.70;44.08;;;;;;;6.70;86.17;100296.22;4160359;28;20689;-83
2022/03/19 00:08:09;;;;;;;66.95;40.92;;;;;;;6.70;86.68;100285.84;4167308;28;20209;-83
2022/03/19 00:10:14;;;;;;;68.43;41.65;;;;;;;6.69;86.61;100284.13;4174603;28;20198;-83
2022/03/19 00:12:18;;;;;;;65.43;41.78;;;;;;;6.68;87.00;100287.63;4189627;28;20255;-83
2022/03/19 00:14:21;;;;;;;73.65;41.70;;;;;;;6.66;86.18;100285.06;4159318;28;20217;-83
2022/03/19 00:16:24;;;;;;;72.55;42.90;;;;;;;6.71;86.08;100290.16;4162057;28;20214;-83
2022/03/19 00:18:28;;;;;;;69.50;41.90;;;;;;;6.75;86.79;100287.50;4176368;28;20205;-83
2022/03/19 00:20:31;;;;;;;64.68;40.38;;;;;;;6.73;85.65;100290.97;4176380;28;20208;-83
2022/03/19 00:22:35;;;;;;;69.70;41.83;;;;;;;6.72;85.80;100291.84;4174169;28;20214;-83
2022/03/19 00:24:40;;;;;;;67.18;42.38;;;;;;;6.71;85.92;100287.56;4196998;28;20201;-83
2022/03/19 00:26:43;;;;;;;72.90;41.60;;;;;;;6.73;86.26;100286.63;4185601;28;20197;-83
2022/03/19 00:28:46;;;;;;;66.20;40.47;;;;;;;6.76;86.01;100277.97;4190908;28;20228;-83
2022/03/19 00:30:49;;;;;;;70.00;41.65;;;;;;;6.77;85.72;100279.69;4160598;28;20218;-83
2022/03/19 00:32:53;;;;;;;62.72;39.10;;;;;;;6.74;85.65;100274.56;4190530;28;20598;-83
2022/03/19 00:34:56;;;;;;;71.68;43.38;;;;;;;6.73;85.66;100271.09;4175341;28;20212;-84
2022/03/19 00:37:00;;;;;;;60.83;37.92;;;;;;;6.75;85.68;100276.25;4174736;28;20236;-82
2022/03/19 00:39:05;;;;;;;61.55;38.92;;;;;;;6.76;85.59;100267.59;4168853;28;20256;-83
2022/03/19 00:41:10;;;;;;;67.80;40.95;;;;;;;6.73;85.68;100267.66;4174099;28;20639;-83
2022/03/19 00:43:13;;;;;;;61.97;40.00;;;;;;;6.73;85.46;100260.72;4173503;28;20209;-83
2022/03/19 00:45:16;;;;;;;65.13;41.28;;;;;;;6.71;85.44;100261.66;4172699;28;20207;-83
2022/03/19 00:47:19;;;;;;;65.90;41.63;;;;;;;6.68;85.27;100254.78;4176770;28;20682;-83
2022/03/19 00:49:23;;;;;;;65.78;39.20;;;;;;;6.68;85.19;100264.28;4176649;28;20206;-83
2022/03/19 00:51:26;;;;;;;69.85;42.42;;;;;;;6.71;85.08;100259.91;4175053;28;20210;-83
2022/03/19 00:53:29;;;;;;;63.75;39.22;;;;;;;6.70;85.52;100258.19;4174538;28;20259;-83
2022/03/19 00:55:32;;;;;;;63.75;40.78;;;;;;;6.67;84.89;100265.16;4162702;28;20751;-83
2022/03/19 00:57:40;;;;;;;65.45;41.08;;;;;;;6.68;84.68;100262.53;4191203;28;20210;-83
2022/03/19 00:59:44;;;;;;;68.63;38.75;;;;;;;6.67;85.48;100262.56;4162018;28;20917;-83
2022/03/19 01:01:47;;;;;;;64.20;40.05;;;;;;;6.71;85.53;100259.06;4186043;28;20204;-83
2022/03/19 01:03:50;;;;;;;60.85;39.75;;;;;;;6.68;85.49;100259.09;4175339;28;20795;-83
2022/03/19 01:05:53;;;;;;;69.28;40.72;;;;;;;6.71;84.67;100259.91;4173892;28;20209;-83
2022/03/19 01:07:56;;;;;;;65.53;40.40;;;;;;;6.69;84.93;100259.09;4174111;28;20206;-83
2022/03/19 01:10:00;;;;;;;68.78;40.22;;;;;;;6.72;84.99;100259.03;4177030;28;20202;-83
2022/03/19 01:12:03;;;;;;;63.47;39.55;;;;;;;6.79;84.49;100258.00;4179199;28;20288;-83
2022/03/19 01:14:08;;;;;;;66.32;40.22;;;;;;;6.74;84.81;100248.63;4153275;28;20215;-83
2022/03/19 01:16:12;;;;;;;69.63;40.03;;;;;;;6.77;84.90;100251.16;4181090;28;20662;-83
2022/03/19 01:18:15;;;;;;;70.65;39.65;;;;;;;6.76;84.65;100245.09;4189359;28;20213;-83
2022/03/19 01:20:18;;;;;;;62.15;40.25;;;;;;;6.74;84.38;100249.47;4153948;28;20234;-83
2022/03/19 01:22:22;;;;;;;60.47;38.90;;;;;;;6.73;84.08;100246.91;4173933;28;20316;-83
2022/03/19 01:24:25;;;;;;;69.28;41.80;;;;;;;6.72;84.79;100247.78;4172148;28;20205;-83
2022/03/19 01:26:29;;;;;;;68.70;38.97;;;;;;;6.73;84.35;100246.91;4172411;28;20856;-83
2022/03/19 01:28:33;;;;;;;66.22;40.40;;;;;;;6.75;84.50;100251.19;4175702;28;20234;-83
2022/03/19 01:30:37;;;;;;;58.38;39.13;;;;;;;6.73;84.39;100247.75;4172218;28;20315;-83
2022/03/19 01:32:40;;;;;;;62.60;39.47;;;;;;;6.71;84.78;100248.69;4177986;28;20233;-83
2022/03/19 01:34:44;;;;;;;62.30;38.33;;;;;;;6.72;84.42;100246.06;4158731;28;20213;-83
2022/03/19 01:36:47;;;;;;;58.03;37.25;;;;;;;6.75;83.79;100246.00;4186141;28;20206;-83
2022/03/19 01:38:50;;;;;;;65.05;40.75;;;;;;;6.76;83.69;100236.47;4190479;28;20216;-83
2022/03/19 01:40:53;;;;;;;68.57;40.65;;;;;;;6.75;83.68;100239.94;4158098;28;20230;-83
2022/03/19 01:42:57;;;;;;;58.60;39.25;;;;;;;6.76;83.88;100239.06;4171235;28;20210;-83
2022/03/19 01:45:01;;;;;;;63.28;40.05;;;;;;;6.75;84.01;100245.13;4173537;28;20264;-83
2022/03/19 01:47:10;;;;;;;57.75;38.40;;;;;;;6.70;83.69;100234.84;4176293;28;20260;-83
2022/03/19 01:49:13;;;;;;;64.47;38.67;;;;;;;6.68;83.82;100233.19;4163701;28;20195;-83
2022/03/19 01:51:17;;;;;;;61.97;39.25;;;;;;;6.69;84.21;100235.75;4173824;28;20206;-83
2022/03/19 01:53:20;;;;;;;62.60;38.00;;;;;;;6.70;83.46;100240.03;4175074;28;20209;-83
2022/03/19 01:55:25;;;;;;;59.83;38.75;;;;;;;6.71;83.34;100238.31;4178690;28;20203;-83
2022/03/19 01:57:34;;;;;;;58.60;37.80;;;;;;;6.73;83.34;100241.72;4188586;28;20201;-83
2022/03/19 01:59:38;;;;;;;60.13;38.88;;;;;;;6.71;83.69;100244.34;4176196;28;20245;-83
2022/03/19 02:01:42;;;;;;;60.67;38.63;;;;;;;6.76;83.30;100242.50;4175030;28;20206;-83
2022/03/19 02:03:46;;;;;;;60.22;38.80;;;;;;;6.72;83.50;100237.41;4179376;28;20771;-83
2022/03/19 02:05:49;;;;;;;62.17;39.53;;;;;;;6.71;83.52;100243.50;4159338;28;20210;-83
2022/03/19 02:07:53;;;;;;;61.08;38.53;;;;;;;6.71;84.00;100233.13;4180029;28;20208;-83
2022/03/19 02:09:58;;;;;;;57.95;37.35;;;;;;;6.71;82.87;100238.31;4172342;28;20224;-83
2022/03/19 02:12:02;;;;;;;60.40;39.10;;;;;;;6.73;82.82;100236.53;4172418;28;20670;-83
2022/03/19 02:14:05;;;;;;;57.00;38.15;;;;;;;6.71;83.24;100233.13;4178879;28;20206;-83
2022/03/19 02:16:09;;;;;;;57.92;38.47;;;;;;;6.73;83.11;100231.34;4176603;28;20543;-83
2022/03/19 02:18:12;;;;;;;57.97;37.80;;;;;;;6.73;83.58;100233.94;4159574;28;20585;-83
2022/03/19 02:20:18;;;;;;;61.92;38.05;;;;;;;6.72;83.54;100237.41;4177836;28;21222;-83
2022/03/19 02:22:22;;;;;;;58.75;37.58;;;;;;;6.71;82.93;100243.50;4180108;28;20233;-83
2022/03/19 02:26:49;;;;;;;63.20;38.78;;;;;;;6.66;83.55;100238.41;4175246;28;20206;-83
2022/03/19 02:28:52;;;;;;;63.28;39.08;;;;;;;6.64;82.94;100239.28;4157984;28;20840;-83
2022/03/19 02:30:56;;;;;;;60.08;37.65;;;;;;;6.64;83.37;100240.13;4171486;28;20215;-83
2022/03/19 02:33:00;;;;;;;61.47;38.03;;;;;;;6.67;82.86;100239.25;4188676;28;20263;-83
2022/03/19 02:35:04;;;;;;;60.22;37.90;;;;;;;6.63;83.22;100235.84;4165504;28;20241;-83
2022/03/19 02:37:07;;;;;;;58.28;38.60;;;;;;;6.64;83.02;100234.97;4153788;28;20625;-83
2022/03/19 02:39:11;;;;;;;55.17;36.58;;;;;;;6.62;82.95;100234.13;4175129;28;20640;-83
2022/03/19 02:41:17;;;;;;;57.85;37.42;;;;;;;6.64;82.53;100237.56;4165661;28;20325;-83
2022/03/19 02:43:21;;;;;;;60.28;38.03;;;;;;;6.60;83.11;100243.69;4173213;28;20235;-83
2022/03/19 02:45:25;;;;;;;61.53;39.05;;;;;;;6.61;83.00;100231.56;4191449;28;20213;-83
2022/03/19 02:47:28;;;;;;;63.15;38.63;;;;;;;6.61;83.33;100228.97;4179818;28;20206;-83
2022/03/19 02:49:31;;;;;;;61.78;38.60;;;;;;;6.63;82.79;100229.81;4182668;28;20202;-83
2022/03/19 02:51:35;;;;;;;62.40;38.80;;;;;;;6.61;82.55;100227.28;4193440;28;20218;-83
2022/03/19 02:53:38;;;;;;;60.17;37.83;;;;;;;6.61;82.79;100224.69;4175968;28;20198;-83
2022/03/19 02:55:42;;;;;;;62.00;38.13;;;;;;;6.63;82.58;100227.22;4159305;28;20217;-83
2022/03/19 02:57:47;;;;;;;56.67;37.25;;;;;;;6.62;82.05;100228.97;4160188;28;20215;-83
2022/03/19 02:59:50;;;;;;;62.63;38.17;;;;;;;6.62;82.22;100222.94;4176541;28;20202;-83
2022/03/19 03:01:54;;;;;;;57.80;36.97;;;;;;;6.56;82.00;100225.63;4186007;28;20221;-83
2022/03/19 03:03:58;;;;;;;60.42;38.05;;;;;;;6.59;82.40;100222.97;4184666;28;20214;-83
2022/03/19 03:06:01;;;;;;;62.88;40.03;;;;;;;6.60;82.57;100220.38;4160002;28;20203;-83
2022/03/19 03:08:05;;;;;;;60.17;38.20;;;;;;;6.60;82.21;100222.13;4172416;28;20207;-83
2022/03/19 03:10:09;;;;;;;61.90;37.53;;;;;;;6.59;82.75;100222.97;4177084;28;20248;-83
2022/03/19 03:12:12;;;;;;;63.78;36.58;;;;;;;6.59;81.68;100223.81;4173093;28;20682;-83
2022/03/19 03:14:19;;;;;;;57.38;37.47;;;;;;;6.57;81.78;100227.34;4160506;28;20215;-83
2022/03/19 03:16:25;;;;;;;65.38;38.92;;;;;;;6.53;81.84;100230.03;4170695;28;20207;-83
2022/03/19 03:18:29;;;;;;;62.80;38.50;;;;;;;6.56;82.76;100230.81;4173321;28;20247;-83
2022/03/19 03:20:34;;;;;;;58.60;38.90;;;;;;;6.53;82.15;100228.28;4176552;28;20213;-83
2022/03/19 03:22:42;;;;;;;63.35;38.47;;;;;;;6.49;82.76;100224.03;4189603;28;20705;-83
2022/03/19 03:24:45;;;;;;;61.60;39.25;;;;;;;6.40;82.80;100219.00;4190076;28;20205;-83
2022/03/19 03:26:48;;;;;;;64.25;38.05;;;;;;;6.42;82.50;100217.25;4178218;28;20212;-83
2022/03/19 03:28:51;;;;;;;65.78;39.28;;;;;;;6.41;82.77;100223.31;4171994;28;20261;-83
2022/03/19 03:30:56;;;;;;;63.78;38.97;;;;;;;6.36;82.82;100219.09;4169446;28;20258;-83
2022/03/19 03:32:59;;;;;;;64.05;37.75;;;;;;;6.34;82.56;100218.25;4160457;28;20224;-83
2022/03/19 03:35:02;;;;;;;60.22;36.60;;;;;;;6.33;83.19;100216.53;4184057;28;20198;-83
2022/03/19 03:37:05;;;;;;;61.92;37.88;;;;;;;6.31;83.33;100213.97;4173560;28;20628;-83
2022/03/19 03:39:09;;;;;;;58.28;38.08;;;;;;;6.31;83.15;100215.72;4161279;28;20207;-83
2022/03/19 03:41:12;;;;;;;67.57;39.30;;;;;;;6.29;83.33;100207.97;4172026;28;20289;-83
2022/03/19 03:43:15;;;;;;;63.25;38.60;;;;;;;6.26;83.09;100215.81;4176742;28;20198;-83
2022/03/19 03:45:19;;;;;;;56.90;36.83;;;;;;;6.22;83.43;100213.28;4189587;28;20201;-83
2022/03/19 03:47:24;;;;;;;63.33;38.80;;;;;;;6.19;83.40;100211.63;4180766;28;20221;-83
2022/03/19 03:49:27;;;;;;;57.90;37.15;;;;;;;6.21;82.94;100212.44;4175428;28;20204;-83
2022/03/19 03:51:30;;;;;;;69.78;40.08;;;;;;;6.20;83.11;100212.47;4176990;28;20614;-83
2022/03/19 03:53:35;;;;;;;65.53;39.50;;;;;;;6.21;82.99;100212.44;4177179;28;20209;-83
2022/03/19 03:55:38;;;;;;;61.40;36.30;;;;;;;6.21;82.90;100209.88;4175327;28;20209;-83
2022/03/19 03:57:41;;;;;;;60.00;35.78;;;;;;;6.22;83.33;100214.16;4173293;28;20205;-83
2022/03/19 03:59:44;;;;;;;63.63;37.72;;;;;;;6.21;83.10;100212.44;4183279;28;20212;-83
2022/03/19 04:01:47;;;;;;;62.38;37.67;;;;;;;6.22;82.97;100211.56;4172648;28;20798;-83
2022/03/19 04:03:53;;;;;;;68.50;38.95;;;;;;;6.21;83.14;100211.59;4172348;28;20683;-83
2022/03/19 04:05:56;;;;;;;69.45;40.22;;;;;;;6.21;82.95;100204.69;4176896;28;20586;-83
2022/03/19 04:07:59;;;;;;;62.53;38.08;;;;;;;6.21;82.81;100211.59;4169485;28;20655;-83
2022/03/19 04:10:02;;;;;;;62.63;37.78;;;;;;;6.22;82.49;100200.34;4180339;28;20276;-83
2022/03/19 04:12:06;;;;;;;57.75;37.55;;;;;;;6.21;82.61;100193.47;4175482;28;20210;-83
2022/03/19 04:14:09;;;;;;;62.40;38.33;;;;;;;6.22;82.59;100197.75;4174627;28;20226;-83
2022/03/19 04:16:12;;;;;;;67.75;38.20;;;;;;;6.17;82.85;100200.41;4170738;28;20689;-83
2022/03/19 04:18:15;;;;;;;61.22;38.10;;;;;;;6.16;82.97;100190.97;4161819;28;20233;-83
2022/03/19 04:20:22;;;;;;;58.83;39.13;;;;;;;6.14;81.97;100192.69;4192662;28;20678;-83
2022/03/19 04:22:33;;;;;;;58.05;37.35;;;;;;;6.13;82.42;100195.31;4176060;28;20280;-83
2022/03/19 04:24:37;;;;;;;65.22;38.92;;;;;;;6.12;82.69;100189.28;4167444;28;20272;-83
2022/03/19 04:26:40;;;;;;;62.80;37.55;;;;;;;6.11;82.80;100182.41;4174662;28;20267;-83
2022/03/19 04:28:43;;;;;;;60.97;38.90;;;;;;;6.08;83.12;100185.94;4176516;28;20293;-83
2022/03/19 04:30:47;;;;;;;58.70;38.78;;;;;;;6.06;83.32;100190.28;4174637;28;20236;-83
2022/03/19 04:32:52;;;;;;;65.57;39.15;;;;;;;6.05;83.39;100186.00;4179526;28;20215;-83
2022/03/19 04:34:56;;;;;;;62.05;37.67;;;;;;;6.05;83.26;100186.84;4172799;28;20322;-82
2022/03/19 04:37:00;;;;;;;60.78;38.30;;;;;;;6.02;83.38;100186.88;4176312;28;20218;-83
2022/03/19 04:39:06;;;;;;;63.92;37.97;;;;;;;6.00;83.78;100187.78;4176294;28;20255;-82
2022/03/19 04:41:09;;;;;;;65.15;39.90;;;;;;;5.99;83.40;100180.91;4177071;28;20210;-83
2022/03/19 04:43:13;;;;;;;60.00;38.17;;;;;;;5.95;83.45;100179.25;4175237;28;20269;-83
2022/03/19 04:45:17;;;;;;;67.47;38.85;;;;;;;5.93;83.58;100181.84;4190537;28;20570;-83
2022/03/19 04:47:20;;;;;;;61.53;37.80;;;;;;;5.96;83.50;100183.56;4159129;28;20694;-83
2022/03/19 04:49:23;;;;;;;66.07;40.70;;;;;;;5.94;83.75;100187.88;4174744;28;20209;-83
2022/03/19 04:51:30;;;;;;;65.88;39.97;;;;;;;5.92;83.49;100177.56;4175060;28;20205;-83
2022/03/19 04:53:34;;;;;;;56.67;37.25;;;;;;;5.89;83.45;100175.00;4159095;28;20605;-83
2022/03/19 04:55:40;;;;;;;61.85;38.45;;;;;;;5.88;83.62;100172.44;4188068;28;20202;-83
2022/03/19 04:57:43;;;;;;;69.47;38.60;;;;;;;5.86;83.63;100175.06;4177704;28;20219;-83
2022/03/19 04:59:46;;;;;;;65.70;41.08;;;;;;;5.84;83.77;100179.41;4159772;28;20240;-83
2022/03/19 05:01:49;;;;;;;63.03;36.95;;;;;;;5.86;83.72;100158.69;4176068;28;20221;-83
2022/03/19 05:03:53;;;;;;;56.75;36.55;;;;;;;5.82;83.49;100170.00;4168349;28;20212;-83
2022/03/19 05:05:56;;;;;;;60.53;37.92;;;;;;;5.80;83.62;100174.31;4165638;28;20201;-83
2022/03/19 05:08:00;;;;;;;59.50;37.90;;;;;;;5.79;83.46;100159.69;4182502;28;20283;-83
2022/03/19 05:12:31;;;;;;;66.28;39.35;;;;;;;5.77;83.55;100175.25;4189676;28;20199;-83
2022/03/19 05:14:34;;;;;;;67.32;37.20;;;;;;;5.76;83.30;100168.34;4175387;28;20583;-83
2022/03/19 05:16:37;;;;;;;61.25;36.85;;;;;;;5.75;83.35;100158.84;4190353;28;20891;-83
2022/03/19 05:18:41;;;;;;;57.97;36.13;;;;;;;5.75;83.61;100160.59;4184395;28;20210;-83
2022/03/19 05:20:44;;;;;;;66.05;39.13;;;;;;;5.74;83.14;100164.94;4188738;28;20841;-83
2022/03/19 05:22:47;;;;;;;63.58;37.97;;;;;;;5.74;83.75;100174.41;4176329;28;20221;-83
2022/03/19 05:24:50;;;;;;;63.40;38.25;;;;;;;5.70;83.60;100165.81;4159485;28;20202;-83
2022/03/19 05:26:54;;;;;;;61.83;36.85;;;;;;;5.72;83.53;100169.22;4179572;28;20625;-83
2022/03/19 05:28:57;;;;;;;61.90;38.20;;;;;;;5.72;83.72;100166.63;4170786;28;20214;-83
2022/03/19 05:31:12;;;;;;;64.32;37.10;;;;;;;5.75;83.25;100166.63;4175861;28;20217;-83
2022/03/19 05:33:16;;;;;;;65.38;38.50;;;;;;;5.73;83.20;100173.53;4169049;28;20209;-83
2022/03/19 05:35:20;;;;;;;69.28;36.50;;;;;;;5.74;83.33;100167.53;4178666;28;20275;-83
2022/03/19 05:37:23;;;;;;;59.97;37.55;;;;;;;5.76;82.86;100164.91;4169035;28;20586;-83
2022/03/19 05:39:27;;;;;;;61.95;36.92;;;;;;;5.76;83.10;100173.50;4175121;28;20706;-83
2022/03/19 05:41:30;;;;;;;55.60;37.20;;;;;;;5.81;82.99;100170.84;4172073;28;20863;-83
2022/03/19 05:43:39;;;;;;;59.00;39.80;;;;;;;5.81;82.82;100166.53;4176005;28;20227;-83
2022/03/19 05:45:42;;;;;;;65.93;38.95;;;;;;;5.87;82.82;100170.75;4184783;28;20203;-83
2022/03/19 05:47:45;;;;;;;64.38;39.60;;;;;;;5.88;82.48;100154.31;4154809;28;20210;-84
2022/03/19 05:49:48;;;;;;;66.97;38.35;;;;;;;5.93;82.34;100166.31;4184142;28;20279;-83
2022/03/19 05:51:51;;;;;;;61.88;38.90;;;;;;;6.00;82.41;100162.75;4156802;28;20197;-83
2022/03/19 05:53:54;;;;;;;59.45;36.88;;;;;;;6.07;82.37;100161.75;4168582;28;20206;-83
2022/03/19 05:55:57;;;;;;;57.67;37.15;;;;;;;6.13;81.80;100167.72;4171111;28;20210;-83
2022/03/19 05:58:00;;;;;;;59.35;37.63;;;;;;;6.23;81.43;100171.81;4176805;28;20198;-83
2022/03/19 06:00:08;;;;;;;63.63;37.90;;;;;;;6.33;80.80;100177.69;4172331;28;20237;-84
2022/03/19 06:02:17;;;;;;;61.22;37.10;;;;;;;6.41;80.81;100171.50;4170020;28;20198;-83
2022/03/19 06:04:20;;;;;;;65.15;39.75;;;;;;;6.46;80.18;100174.84;4163536;28;20566;-83
2022/03/19 06:06:24;;;;;;;58.70;36.40;;;;;;;6.56;80.32;100161.69;4177161;28;20607;-83
2022/03/19 06:08:27;;;;;;;61.13;34.95;;;;;;;6.58;80.00;100172.03;4173097;28;20214;-83
2022/03/19 06:10:35;;;;;;;56.08;36.25;;;;;;;6.64;79.72;100161.53;4156653;28;20234;-83
2022/03/19 06:12:40;;;;;;;58.72;36.80;;;;;;;6.71;79.13;100163.13;4173325;28;20709;-83
2022/03/19 06:14:43;;;;;;;61.47;38.13;;;;;;;6.78;78.92;100156.91;4174151;28;20263;-83
2022/03/19 06:16:49;;;;;;;67.35;39.03;;;;;;;6.93;78.29;100166.97;4172859;28;20206;-83
2022/03/19 06:18:52;;;;;;;58.40;36.15;;;;;;;6.94;77.99;100166.09;4189037;28;20201;-83
2022/03/19 06:20:56;;;;;;;62.63;36.17;;;;;;;7.03;77.81;100161.56;4173389;28;20212;-83
2022/03/19 06:23:00;;;;;;;59.15;37.05;;;;;;;7.06;77.55;100164.94;4191252;28;20225;-83
2022/03/19 06:25:04;;;;;;;56.97;37.47;;;;;;;7.12;77.32;100162.22;4173266;28;20217;-83
2022/03/19 06:27:08;;;;;;;53.70;36.95;;;;;;;7.18;77.00;100171.63;4173115;28;20232;-82
2022/03/19 06:29:11;;;;;;;55.80;36.80;;;;;;;7.15;76.77;100169.09;4167341;28;20211;-83
2022/03/19 06:31:15;;;;;;;56.33;35.55;;;;;;;7.21;77.48;100162.03;4170900;28;20229;-85
2022/03/19 06:33:19;;;;;;;60.17;36.92;;;;;;;7.42;77.22;100158.13;4158689;28;20200;-84
2022/03/19 06:37:40;;;;;;;55.92;34.70;;;;;;;7.62;76.18;100157.63;4161366;28;20206;-83
2022/03/19 06:39:43;;;;;;;55.83;34.97;;;;;;;7.78;75.07;100142.53;4178761;28;20222;-84
2022/03/19 06:41:47;;;;;;;53.53;35.58;;;;;;;7.94;73.68;100156.81;4163362;28;20203;-85
2022/03/19 06:43:50;;;;;;;59.33;34.30;;;;;;;8.03;74.54;100155.72;4190337;28;20282;-85
2022/03/19 06:45:54;;;;;;;53.72;34.97;;;;;;;8.13;73.67;100161.53;4193048;28;20238;-84
2022/03/19 06:47:58;;;;;;;58.80;36.88;;;;;;;8.25;73.08;100163.84;4175928;28;20209;-86
2022/03/19 06:50:03;;;;;;;57.00;35.45;;;;;;;8.37;72.58;100145.31;4182443;28;20318;-85
2022/03/19 06:52:07;;;;;;;53.15;34.70;;;;;;;8.48;72.83;100149.34;4174788;28;20552;-85
2022/03/19 06:54:10;;;;;;;57.15;36.45;;;;;;;8.56;71.73;100153.44;4156899;28;20203;-84
2022/03/19 06:56:14;;;;;;;54.15;36.33;;;;;;;8.59;71.77;100149.91;4151876;28;20203;-84
2022/03/19 06:58:17;;;;;;;53.75;34.40;;;;;;;8.62;70.70;100147.22;4169003;28;20200;-84
2022/03/19 07:00:20;;;;;;;53.00;33.67;;;;;;;8.56;71.15;100145.63;4180056;28;20232;-85
2022/03/19 07:02:23;;;;;;;54.65;35.38;;;;;;;8.83;72.26;100147.47;4177425;28;20209;-86
2022/03/19 07:04:27;;;;;;;51.85;35.95;;;;;;;9.03;70.79;100156.38;4177690;28;20228;-84
2022/03/19 07:06:31;;;;;;;56.45;36.20;;;;;;;9.05;70.19;100154.59;4177747;28;20250;-84
2022/03/19 07:08:54;;;;;;;52.85;34.58;;;;;;;9.29;69.50;100137.38;4178629;28;20225;-84
2022/03/19 07:10:58;;;;;;;55.13;35.80;;;;;;;9.48;69.31;100152.41;4178151;28;20209;-84
2022/03/19 07:13:02;;;;;;;50.57;33.27;;;;;;;9.42;68.78;100142.19;4160468;28;20210;-85
2022/03/19 07:15:06;;;;;;;51.85;33.25;;;;;;;9.71;68.98;100142.09;4174621;28;20641;-84
2022/03/19 07:17:10;;;;;;;47.28;33.85;;;;;;;9.99;69.07;100147.25;4176166;28;20212;-84
2022/03/19 07:19:13;;;;;;;46.67;31.80;;;;;;;10.02;66.41;100143.69;4176079;28;20266;-84
2022/03/19 07:21:17;;;;;;;48.27;33.43;;;;;;;10.06;66.75;100146.16;4177067;28;21066;-84
2022/03/19 07:23:26;;;;;;;51.60;34.30;;;;;;;10.25;67.04;100142.00;4173988;28;21339;-84
2022/03/19 07:25:31;;;;;;;48.90;34.17;;;;;;;10.32;66.32;100144.34;4163830;28;20630;-84
2022/03/19 07:27:35;;;;;;;53.80;34.20;;;;;;;10.43;66.14;100141.38;4164497;28;21247;-84
2022/03/19 07:29:39;;;;;;;54.70;36.80;;;;;;;10.62;65.45;100142.44;4176793;28;20640;-84
2022/03/19 07:31:42;;;;;;;49.37;33.80;;;;;;;10.73;64.55;100142.91;4164955;28;20690;-84
2022/03/19 07:33:47;;;;;;;48.77;33.27;;;;;;;10.76;64.96;100141.03;4179712;28;20869;-84
2022/03/19 07:35:50;;;;;;;48.47;34.33;;;;;;;10.97;64.46;100145.47;4179451;28;20647;-84
2022/03/19 07:37:54;;;;;;;45.70;32.50;;;;;;;11.04;62.66;100132.13;4162729;28;20730;-84
2022/03/19 07:39:58;;;;;;;48.00;32.33;;;;;;;11.07;63.03;100139.84;4176700;28;20651;-84
2022/03/19 07:42:01;;;;;;;48.20;33.43;;;;;;;11.13;63.43;100139.59;4175270;28;20633;-84
2022/03/19 07:44:04;;;;;;;44.30;32.07;;;;;;;11.31;61.71;100146.75;4175605;28;22635;-85
2022/03/19 07:46:07;;;;;;;51.03;34.93;;;;;;;11.32;62.67;100143.19;4176956;28;20688;-83
2022/03/19 07:48:11;;;;;;;44.43;31.30;;;;;;;11.47;61.96;100138.28;4176066;28;20640;-83
2022/03/19 07:50:29;;;;;;;45.90;31.57;;;;;;;11.23;62.14;100142.72;4197487;28;20621;-85
2022/03/19 07:52:33;;;;;;;44.00;31.83;;;;;;;11.10;61.65;100134.50;4176714;28;20618;-89
2022/03/19 07:54:36;;;;;;;47.60;32.63;;;;;;;10.96;61.53;100134.16;4177210;28;20713;-87
2022/03/19 07:56:41;;;;;;;44.03;30.87;;;;;;;11.07;60.98;100147.66;4157409;28;20688;-87
2022/03/19 07:58:50;;;;;;;46.43;32.00;;;;;;;10.94;61.06;100122.91;4176433;28;20638;-87
2022/03/19 08:00:53;;;;;;;43.47;30.57;;;;;;;10.89;61.29;100126.63;4178720;28;20664;-86
2022/03/19 08:02:59;;;;;;;48.77;33.27;;;;;;;10.91;61.93;100132.63;4160441;28;21193;-86
2022/03/19 08:05:03;;;;;;;42.80;31.60;;;;;;;10.75;60.73;100133.25;4176797;28;20757;-87
2022/03/19 08:07:07;;;;;;;45.10;31.23;;;;;;;10.70;62.10;100130.81;4175329;28;20630;-87
2022/03/19 08:09:10;;;;;;;41.53;29.17;;;;;;;10.66;61.08;100141.41;4176117;28;21276;-87
2022/03/19 08:11:14;;;;;;;40.90;29.50;;;;;;;10.84;61.98;100129.41;4164609;28;20975;-84
2022/03/19 08:13:19;;;;;;;40.43;28.30;;;;;;;10.73;61.31;100141.13;4161250;28;20634;-83
2022/03/19 08:15:22;;;;;;;43.00;30.37;;;;;;;10.72;61.56;100134.22;4186955;28;20635;-81
2022/03/19 08:17:25;;;;;;;44.53;31.10;;;;;;;11.02;61.92;100123.50;4172735;28;20649;-83
2022/03/19 08:19:29;;;;;;;41.33;28.87;;;;;;;11.17;60.57;100119.44;4175128;28;20674;-85
2022/03/19 08:21:48;;;;;;;44.90;30.47;;;;;;;11.46;61.86;100120.03;4156643;28;20664;-84
2022/03/19 08:23:52;;;;;;;40.40;30.10;;;;;;;11.74;59.75;100129.34;4176040;28;21054;-84
2022/03/19 08:25:55;;;;;;;42.03;29.67;;;;;;;11.80;60.18;100114.28;4169715;28;20650;-84
2022/03/19 08:27:59;;;;;;;43.27;31.20;;;;;;;12.02;60.39;100133.38;4192001;28;20637;-84
2022/03/19 08:30:09;;;;;;;43.23;30.90;;;;;;;11.95;58.42;100134.56;4163110;28;21091;-85
2022/03/19 08:32:13;;;;;;;40.87;29.77;;;;;;;12.02;59.84;100119.47;4158597;28;20640;-86
2022/03/19 08:34:16;;;;;;;43.00;30.60;;;;;;;12.02;59.11;100114.22;4184252;28;21054;-85
2022/03/19 08:36:19;;;;;;;43.40;30.00;;;;;;;11.91;58.92;100130.34;4193205;28;21060;-85
2022/03/19 08:40:43;;;;;;;41.60;30.30;;;;;;;11.77;58.96;100117.00;4173935;28;21193;-83
2022/03/19 08:42:51;;;;;;;40.80;30.27;;;;;;;11.75;58.75;100108.34;4174539;28;21031;-83
2022/03/19 08:44:56;;;;;;;42.73;31.80;;;;;;;11.93;59.30;100104.16;4160871;28;20668;-83
2022/03/19 08:47:00;;;;;;;44.90;31.50;;;;;;;12.02;59.96;100107.22;4159770;28;20666;-82
2022/03/19 08:49:04;;;;;;;44.50;32.43;;;;;;;11.79;59.64;100114.34;4174703;28;20638;-82
2022/03/19 08:53:27;;;;;;;43.53;30.43;;;;;;;11.49;58.30;100099.88;4160407;28;20644;-83
2022/03/19 08:55:30;;;;;;;44.70;31.03;;;;;;;11.56;59.16;100095.25;4161821;28;20627;-83
2022/03/19 08:57:33;;;;;;;43.00;30.77;;;;;;;11.40;59.72;100094.16;4157885;28;20679;-83
2022/03/19 08:59:37;;;;;;;44.50;32.43;;;;;;;11.39;60.01;100098.50;4157013;28;20691;-83
2022/03/19 09:01:40;;;;;;;43.47;30.90;;;;;;;11.46;60.12;100089.50;4176693;28;20635;-83
2022/03/19 09:03:45;;;;;;;47.93;33.13;;;;;;;11.67;60.32;100085.25;4189718;28;20664;-83
2022/03/19 09:05:52;;;;;;;43.40;32.17;;;;;;;11.79;59.82;100094.25;4158118;28;21200;-82
2022/03/19 09:07:55;;;;;;;43.87;32.80;;;;;;;11.83;59.35;100090.63;4175408;28;20657;-83
2022/03/19 09:09:58;;;;;;;48.17;33.83;;;;;;;11.68;60.19;100079.06;4187774;28;20649;-82
2022/03/19 09:12:11;;;;;;;47.27;33.00;;;;;;;11.77;60.14;100085.63;4175981;28;20665;-82
2022/03/19 09:14:14;;;;;;;49.27;33.00;;;;;;;11.70;61.08;100082.47;4178613;28;20669;-83
2022/03/19 09:16:18;;;;;;;51.03;34.50;;;;;;;11.90;60.85;100063.28;4176098;28;20661;-82
2022/03/19 09:18:21;;;;;;;45.90;34.33;;;;;;;11.86;60.94;100061.72;4173893;28;21234;-83
2022/03/19 09:20:26;;;;;;;47.93;34.37;;;;;;;11.97;58.72;100064.72;4179022;28;20744;-83
2022/03/19 09:22:30;;;;;;;48.87;34.43;;;;;;;12.15;60.19;100055.22;4173946;28;21274;-83
2022/03/19 09:24:33;;;;;;;43.07;30.63;;;;;;;12.25;59.03;100046.91;4158782;28;20988;-83
2022/03/19 09:26:36;;;;;;;49.27;34.87;;;;;;;12.23;60.02;100058.38;4162024;28;20660;-84
2022/03/19 09:28:40;;;;;;;49.93;35.33;;;;;;;12.33;61.50;100050.91;4161501;28;20643;-83
2022/03/19 09:30:43;;;;;;;45.37;33.20;;;;;;;12.47;59.24;100038.06;4174130;28;20690;-88
2022/03/19 09:32:46;;;;;;;45.50;31.50;;;;;;;12.60;58.29;100046.19;4157733;28;20687;-91
2022/03/19 09:35:11;;;;;;;46.33;32.83;;;;;;;12.35;59.01;100049.06;4172369;28;20751;-83
2022/03/19 09:37:15;;;;;;;46.50;33.70;;;;;;;12.31;59.24;100034.44;4186235;28;20694;-83
2022/03/19 09:39:19;;;;;;;46.00;32.97;;;;;;;12.33;58.84;100039.59;4171292;28;20663;-84
2022/03/19 09:41:22;;;;;;;46.40;33.47;;;;;;;12.35;58.58;100035.16;4160296;28;20641;-83